createdAt,value
2023-10-23T00:00:07.721Z,68.72
2023-10-23T00:02:59.939Z,68.79
2023-10-23T00:05:28.742Z,68.59
2023-10-23T00:07:57.536Z,68.65
2023-10-23T00:10:26.020Z,68.60
2023-10-23T00:12:54.552Z,68.31
2023-10-23T00:15:23.424Z,68.39
2023-10-23T00:17:52.214Z,68.12
2023-10-23T00:20:21.571Z,68.18
2023-10-23T00:22:50.075Z,68.43
2023-10-23T00:25:18.770Z,68.67
2023-10-23T00:27:47.236Z,68.76
2023-10-23T00:30:15.846Z,68.69
2023-10-23T00:32:44.268Z,68.54
2023-10-23T00:35:12.881Z,68.46
2023-10-23T00:37:41.464Z,68.49
2023-10-23T00:40:10.462Z,68.86
2023-10-23T00:42:39.153Z,69.08
2023-10-23T00:45:08.314Z,69.35
2023-10-23T00:47:37.049Z,68.99
2023-10-23T00:50:06.001Z,69.29
2023-10-23T00:52:34.831Z,70.25
2023-10-23T00:55:05.010Z,70.44
2023-10-23T00:57:34.178Z,70.45
2023-10-23T01:00:05.761Z,70.87
2023-10-23T01:02:35.177Z,70.83
2023-10-23T01:05:03.892Z,70.96
2023-10-23T01:07:32.487Z,70.76
2023-10-23T01:10:01.272Z,71.63
2023-10-23T01:12:30.611Z,71.24
2023-10-23T01:14:59.362Z,71.26
2023-10-23T01:17:27.860Z,71.27
2023-10-23T01:19:56.332Z,70.79
2023-10-23T01:22:24.660Z,70.93
2023-10-23T01:24:53.859Z,70.82
2023-10-23T01:27:22.450Z,70.73
2023-10-23T01:29:50.868Z,71.03
2023-10-23T01:32:19.260Z,71.37
2023-10-23T01:34:48.050Z,71.40
2023-10-23T01:37:16.430Z,71.68
2023-10-23T01:39:45.041Z,71.53
2023-10-23T01:42:13.701Z,72.15
2023-10-23T01:44:42.040Z,72.24
2023-10-23T01:47:10.622Z,72.43
2023-10-23T01:49:39.034Z,72.98
2023-10-23T01:52:07.414Z,73.27
2023-10-23T01:54:35.941Z,73.19
2023-10-23T01:57:04.693Z,73.11
2023-10-23T01:59:33.165Z,73.12
2023-10-23T02:02:01.650Z,72.88
2023-10-23T02:04:30.801Z,72.83
2023-10-23T02:06:59.636Z,72.82
2023-10-23T02:09:29.567Z,72.89
2023-10-23T02:11:58.033Z,72.96
2023-10-23T02:14:26.516Z,73.31
2023-10-23T02:16:56.485Z,73.35
2023-10-23T02:19:24.806Z,73.45
2023-10-23T02:21:53.245Z,73.72
2023-10-23T02:24:21.706Z,73.97
2023-10-23T02:26:50.466Z,73.98
2023-10-23T02:29:19.144Z,73.95
2023-10-23T02:31:47.623Z,73.80
2023-10-23T02:34:17.674Z,73.78
2023-10-23T02:36:46.262Z,73.67
2023-10-23T02:39:14.921Z,73.57
2023-10-23T02:41:43.922Z,73.80
2023-10-23T02:44:12.502Z,74.41
2023-10-23T02:46:42.457Z,74.37
2023-10-23T02:49:11.112Z,74.23
2023-10-23T02:51:39.839Z,74.18
2023-10-23T02:54:08.389Z,74.31
2023-10-23T02:56:36.879Z,74.33
2023-10-23T02:59:05.593Z,74.45
2023-10-23T03:01:34.383Z,74.78
2023-10-23T03:04:03.833Z,75.11
2023-10-23T03:06:32.755Z,75.62
2023-10-23T03:09:01.530Z,76.21
2023-10-23T03:11:30.315Z,77.02
2023-10-23T03:13:58.709Z,77.52
2023-10-23T03:16:27.860Z,77.42
2023-10-23T03:18:56.622Z,77.42
2023-10-23T03:21:25.157Z,77.50
2023-10-23T03:23:53.573Z,77.17
2023-10-23T03:26:22.127Z,77.11
2023-10-23T03:28:50.636Z,78.27
2023-10-23T03:31:19.507Z,78.11
2023-10-23T03:33:48.113Z,78.34
2023-10-23T03:36:17.592Z,78.19
2023-10-23T03:38:46.996Z,77.92
2023-10-23T03:41:15.578Z,77.87
2023-10-23T03:43:44.068Z,77.70
2023-10-23T03:46:12.955Z,77.83
2023-10-23T03:48:41.695Z,77.84
2023-10-23T03:51:10.630Z,77.84
2023-10-23T03:53:39.231Z,78.11
2023-10-23T03:56:07.800Z,78.00
2023-10-23T03:58:36.281Z,77.60
2023-10-23T04:01:04.863Z,77.58
2023-10-23T04:03:33.607Z,77.56
2023-10-23T04:06:04.511Z,77.58
2023-10-23T04:08:32.994Z,77.80
2023-10-23T04:11:01.582Z,78.15
2023-10-23T04:13:30.653Z,78.32
2023-10-23T04:16:00.550Z,78.39
2023-10-23T04:18:29.628Z,78.98
2023-10-23T04:21:09.160Z,78.72
2023-10-23T04:23:38.942Z,78.54
2023-10-23T04:26:08.439Z,79.29
2023-10-23T04:28:38.209Z,79.33
2023-10-23T04:31:06.952Z,79.51
2023-10-23T04:33:35.577Z,79.82
2023-10-23T04:36:04.384Z,80.35
2023-10-23T04:38:33.212Z,80.70
2023-10-23T04:41:01.696Z,80.99
2023-10-23T04:43:30.482Z,80.80
2023-10-23T04:45:59.410Z,80.67
2023-10-23T04:48:28.400Z,80.35
2023-10-23T04:51:03.570Z,80.15
2023-10-23T04:53:31.996Z,80.63
2023-10-23T04:56:00.373Z,80.34
2023-10-23T04:58:29.000Z,80.34
2023-10-23T05:00:57.602Z,80.56
2023-10-23T05:03:26.626Z,80.58
2023-10-23T05:05:55.123Z,80.63
2023-10-23T05:08:23.500Z,81.18
2023-10-23T05:10:52.386Z,81.19
2023-10-23T05:13:21.284Z,81.36
2023-10-23T05:15:49.858Z,81.24
2023-10-23T05:18:18.363Z,81.38
2023-10-23T05:20:46.843Z,81.80
2023-10-23T05:23:15.316Z,81.47
2023-10-23T05:25:43.705Z,81.07
2023-10-23T05:28:12.183Z,81.00
2023-10-23T05:30:40.809Z,80.83
2023-10-23T05:33:09.315Z,80.45
2023-10-23T05:35:37.928Z,80.62
2023-10-23T05:38:06.732Z,80.77
2023-10-23T05:40:35.211Z,80.62
2023-10-23T05:43:03.796Z,80.45
2023-10-23T05:45:32.348Z,80.32
2023-10-23T05:48:01.115Z,80.42
2023-10-23T05:50:29.938Z,80.26
2023-10-23T05:52:58.424Z,80.78
2023-10-23T05:55:26.907Z,80.93
2023-10-23T05:57:57.186Z,80.82
2023-10-23T06:00:25.712Z,80.97
2023-10-23T06:02:54.154Z,81.09
2023-10-23T06:05:22.678Z,80.94
2023-10-23T06:07:51.131Z,81.14
2023-10-23T06:10:19.564Z,81.19
2023-10-23T06:12:48.047Z,81.00
2023-10-23T06:15:16.552Z,80.67
2023-10-23T06:17:45.056Z,80.59
2023-10-23T06:20:13.647Z,80.52
2023-10-23T06:22:42.254Z,80.40
2023-10-23T06:25:10.736Z,80.25
2023-10-23T06:27:39.451Z,80.08
2023-10-23T06:30:08.730Z,79.74
2023-10-23T06:32:37.157Z,79.39
2023-10-23T06:35:06.411Z,79.27
2023-10-23T06:37:34.985Z,78.99
2023-10-23T06:40:04.069Z,78.93
2023-10-23T06:42:32.553Z,78.69
2023-10-23T06:45:01.119Z,78.65
2023-10-23T06:47:29.835Z,78.31
2023-10-23T06:49:58.328Z,78.20
2023-10-23T06:52:27.181Z,78.18
2023-10-23T06:54:55.779Z,78.05
2023-10-23T06:57:24.490Z,77.90
2023-10-23T06:59:55.835Z,78.00
2023-10-23T07:02:24.627Z,78.11
2023-10-23T07:04:53.483Z,78.09
2023-10-23T07:07:30.213Z,78.22
2023-10-23T07:10:01.961Z,78.14
2023-10-23T07:12:30.425Z,78.24
2023-10-23T07:14:58.856Z,78.20
2023-10-23T07:17:27.606Z,78.37
2023-10-23T07:19:56.283Z,78.29
2023-10-23T07:22:24.866Z,78.21
2023-10-23T07:24:56.214Z,77.88
2023-10-23T07:27:24.750Z,77.66
2023-10-23T07:29:54.646Z,77.44
2023-10-23T07:32:23.196Z,77.39
2023-10-23T07:34:51.680Z,77.07
2023-10-23T07:37:20.295Z,76.44
2023-10-23T07:39:49.722Z,75.80
2023-10-23T07:42:18.555Z,75.80
2023-10-23T07:44:47.135Z,75.64
2023-10-23T07:47:15.835Z,75.28
2023-10-23T07:49:45.732Z,75.11
2023-10-23T07:52:14.121Z,75.24
2023-10-23T07:54:42.619Z,75.13
2023-10-23T07:57:11.079Z,74.51
2023-10-23T07:59:41.486Z,73.97
2023-10-23T08:02:10.333Z,73.62
2023-10-23T08:04:39.195Z,72.64
2023-10-23T08:07:07.784Z,72.31
2023-10-23T08:09:36.774Z,71.77
2023-10-23T08:12:05.721Z,71.66
2023-10-23T08:14:34.144Z,70.90
2023-10-23T08:17:02.862Z,70.73
2023-10-23T08:19:31.561Z,70.24
2023-10-23T08:22:00.960Z,69.61
2023-10-23T08:24:29.401Z,68.96
2023-10-23T08:26:57.980Z,68.65
2023-10-23T08:29:28.405Z,68.56
2023-10-23T08:31:56.954Z,68.46
2023-10-23T08:34:25.920Z,67.60
2023-10-23T08:36:54.567Z,67.51
2023-10-23T08:39:23.459Z,67.39
2023-10-23T08:41:52.349Z,67.51
2023-10-23T08:44:21.141Z,67.45
2023-10-23T08:46:51.089Z,67.17
2023-10-23T08:49:20.203Z,66.89
2023-10-23T08:51:54.846Z,66.74
2023-10-23T08:54:23.580Z,66.69
2023-10-23T08:56:59.990Z,65.64
2023-10-23T08:59:29.141Z,65.83
2023-10-23T09:02:01.761Z,65.94
2023-10-23T09:04:31.235Z,65.38
2023-10-23T09:07:01.200Z,64.77
2023-10-23T09:09:30.333Z,64.47
2023-10-23T09:11:59.126Z,63.99
2023-10-23T09:14:29.685Z,62.95
2023-10-23T09:16:59.417Z,62.48
2023-10-23T09:19:36.000Z,61.72
2023-10-23T09:22:05.784Z,61.76
2023-10-23T09:24:34.441Z,61.42
2023-10-23T09:27:03.235Z,61.10
2023-10-23T09:29:32.100Z,60.73
2023-10-23T09:32:01.012Z,60.26
2023-10-23T09:34:30.543Z,59.97
2023-10-23T09:36:59.148Z,59.96
2023-10-23T09:39:27.820Z,59.32
2023-10-23T09:41:57.063Z,58.98
2023-10-23T09:44:28.358Z,59.07
2023-10-23T09:46:59.936Z,58.62
2023-10-23T09:49:30.003Z,58.27
2023-10-23T09:52:01.925Z,58.33
2023-10-23T09:54:33.087Z,58.50
2023-10-23T09:57:07.590Z,57.55
2023-10-23T09:59:44.050Z,57.07
2023-10-23T10:02:16.532Z,56.55
2023-10-23T10:05:07.004Z,55.56
2023-10-23T10:07:53.902Z,55.94
2023-10-23T10:10:22.929Z,54.46
2023-10-23T10:12:51.926Z,55.04
2023-10-23T10:15:21.216Z,54.52
2023-10-23T10:17:51.675Z,54.43
2023-10-23T10:20:23.942Z,54.50
2023-10-23T10:23:04.668Z,54.88
2023-10-23T10:25:35.613Z,54.24
2023-10-23T10:28:06.156Z,54.69
2023-10-23T10:30:44.742Z,54.56
2023-10-23T10:34:21.933Z,54.03
2023-10-23T10:36:11.630Z,53.65
2023-10-23T10:38:40.201Z,53.73
2023-10-23T10:41:17.132Z,54.01
2023-10-23T10:43:52.968Z,53.92
2023-10-23T10:46:26.578Z,54.32
2023-10-23T10:48:56.641Z,53.76
2023-10-23T10:51:27.391Z,53.49
2023-10-23T10:54:00.003Z,53.73
2023-10-23T10:56:28.779Z,53.80
2023-10-23T10:59:01.364Z,53.37
2023-10-23T11:01:30.618Z,52.86
2023-10-23T11:04:00.704Z,50.31
2023-10-23T11:06:31.161Z,50.06
2023-10-23T11:09:00.661Z,50.85
2023-10-23T11:11:29.812Z,50.72
2023-10-23T11:14:03.605Z,50.82
2023-10-23T11:16:32.594Z,50.60
2023-10-23T11:19:02.372Z,50.72
2023-10-23T11:21:30.999Z,51.00
2023-10-23T11:23:59.645Z,51.20
2023-10-23T11:26:28.169Z,50.95
2023-10-23T11:28:56.672Z,50.70
2023-10-23T11:31:25.664Z,50.94
2023-10-23T11:33:57.262Z,50.86
2023-10-23T11:36:31.324Z,50.59
2023-10-23T11:38:59.785Z,50.88
2023-10-23T11:41:29.187Z,50.99
2023-10-23T11:44:04.504Z,51.02
2023-10-23T11:46:35.283Z,51.21
2023-10-23T11:49:04.335Z,50.66
2023-10-23T11:51:32.851Z,50.68
2023-10-23T11:54:05.020Z,50.04
2023-10-23T11:56:34.113Z,49.30
2023-10-23T11:59:02.589Z,48.88
2023-10-23T12:01:34.239Z,48.58
2023-10-23T12:04:02.914Z,48.72
2023-10-23T12:06:31.639Z,48.50
2023-10-23T12:09:00.220Z,47.72
2023-10-23T12:11:30.564Z,47.31
2023-10-23T12:14:01.028Z,46.79
2023-10-23T12:16:32.040Z,46.31
2023-10-23T12:19:01.481Z,46.29
2023-10-23T12:21:29.906Z,45.71
2023-10-23T12:23:58.378Z,44.78
2023-10-23T12:26:27.373Z,43.11
2023-10-23T12:28:55.858Z,42.93
2023-10-23T12:31:24.964Z,43.01
2023-10-23T12:33:53.901Z,42.04
2023-10-23T12:36:22.740Z,42.18
2023-10-23T12:38:51.313Z,40.49
2023-10-23T12:41:19.928Z,39.65
2023-10-23T12:43:49.450Z,39.42
2023-10-23T12:46:18.968Z,39.75
2023-10-23T12:48:47.778Z,39.24
2023-10-23T12:51:16.771Z,37.82
2023-10-23T12:53:45.181Z,38.47
2023-10-23T12:56:13.669Z,38.96
2023-10-23T12:58:42.861Z,40.07
2023-10-23T13:01:11.491Z,40.33
2023-10-23T13:03:40.170Z,39.95
2023-10-23T13:06:09.230Z,40.24
2023-10-23T13:08:37.614Z,40.78
2023-10-23T13:11:06.089Z,40.42
2023-10-23T13:13:34.684Z,40.38
2023-10-23T13:16:03.207Z,40.87
2023-10-23T13:18:32.725Z,40.45
2023-10-23T13:21:31.480Z,40.01
2023-10-23T13:23:51.030Z,39.63
2023-10-23T13:26:19.923Z,40.31
2023-10-23T13:28:49.494Z,40.03
2023-10-23T13:31:18.575Z,39.93
2023-10-23T13:33:47.576Z,39.46
2023-10-23T13:36:16.313Z,39.02
2023-10-23T13:38:44.802Z,38.65
2023-10-23T13:41:13.481Z,37.86
2023-10-23T13:43:42.275Z,37.60
2023-10-23T13:46:10.889Z,38.24
2023-10-23T13:48:39.446Z,38.78
2023-10-23T13:51:09.321Z,38.07
2023-10-23T13:53:38.562Z,38.54
2023-10-23T13:56:07.612Z,38.37
2023-10-23T13:58:37.684Z,36.73
2023-10-23T14:01:06.474Z,36.60
2023-10-23T14:03:35.886Z,36.70
2023-10-23T14:06:05.369Z,35.57
2023-10-23T14:09:42.419Z,34.51
2023-10-23T14:11:58.256Z,33.75
2023-10-23T14:14:11.265Z,33.62
2023-10-23T14:16:39.920Z,33.52
2023-10-23T14:19:08.661Z,33.88
2023-10-23T14:21:39.478Z,33.69
2023-10-23T14:24:08.614Z,34.31
2023-10-23T14:26:37.264Z,35.22
2023-10-23T14:29:08.819Z,35.94
2023-10-23T14:31:37.496Z,36.60
2023-10-23T14:34:06.143Z,37.24
2023-10-23T14:36:34.884Z,37.84
2023-10-23T14:39:03.773Z,38.33
2023-10-23T14:41:34.206Z,38.97
2023-10-23T14:44:03.021Z,39.31
2023-10-23T14:46:32.574Z,39.54
2023-10-23T14:49:03.146Z,40.15
2023-10-23T14:51:31.728Z,40.62
2023-10-23T14:54:00.190Z,40.95
2023-10-23T14:56:29.938Z,41.40
2023-10-23T14:58:58.394Z,41.74
2023-10-23T15:01:26.817Z,42.37
2023-10-23T15:03:57.162Z,42.72
2023-10-23T15:06:29.604Z,43.10
2023-10-23T15:09:02.359Z,43.42
2023-10-23T15:11:30.943Z,43.21
2023-10-23T15:13:59.826Z,43.24
2023-10-23T15:16:28.419Z,43.67
2023-10-23T15:18:57.157Z,43.88
2023-10-23T15:21:25.893Z,44.27
2023-10-23T15:23:54.677Z,44.98
2023-10-23T15:26:23.162Z,45.55
2023-10-23T15:28:51.963Z,45.98
2023-10-23T15:31:20.558Z,46.21
2023-10-23T15:33:49.231Z,46.65
2023-10-23T15:36:17.670Z,46.98
2023-10-23T15:38:46.397Z,47.61
2023-10-23T15:41:15.675Z,47.93
2023-10-23T15:43:47.852Z,48.24
2023-10-23T15:46:17.618Z,49.19
2023-10-23T15:48:46.990Z,49.38
2023-10-23T15:51:18.070Z,49.65
2023-10-23T15:53:46.511Z,49.98
2023-10-23T15:56:14.901Z,50.85
2023-10-23T15:58:43.468Z,51.37
2023-10-23T16:01:12.042Z,51.53
2023-10-23T16:03:40.906Z,51.66
2023-10-23T16:06:10.090Z,51.89
2023-10-23T16:08:39.580Z,52.06
2023-10-23T16:11:09.286Z,52.53
2023-10-23T16:13:38.914Z,52.70
2023-10-23T16:16:10.424Z,52.87
2023-10-23T16:18:46.459Z,52.99
2023-10-23T16:21:16.325Z,53.32
2023-10-23T16:23:45.307Z,53.84
2023-10-23T16:26:14.022Z,54.03
2023-10-23T16:28:42.467Z,54.58
2023-10-23T16:31:17.415Z,54.78
2023-10-23T16:33:45.900Z,54.55
2023-10-23T16:36:14.469Z,54.61
2023-10-23T16:38:43.182Z,54.71
2023-10-23T16:41:11.641Z,54.71
2023-10-23T16:43:43.607Z,54.81
2023-10-23T16:46:13.202Z,55.28
2023-10-23T16:48:42.988Z,55.59
2023-10-23T16:51:11.833Z,55.48
2023-10-23T16:53:40.647Z,55.67
2023-10-23T16:56:09.193Z,55.94
2023-10-23T16:58:37.765Z,56.26
2023-10-23T17:01:10.324Z,56.62
2023-10-23T17:03:40.683Z,56.64
2023-10-23T17:06:10.338Z,56.72
2023-10-23T17:08:38.870Z,56.82
2023-10-23T17:11:09.254Z,56.90
2023-10-23T17:13:38.429Z,57.09
2023-10-23T17:16:08.076Z,57.28
2023-10-23T17:18:36.890Z,57.73
2023-10-23T17:21:05.479Z,57.93
2023-10-23T17:23:35.294Z,57.95
2023-10-23T17:26:03.996Z,58.50
2023-10-23T17:28:32.655Z,58.85
2023-10-23T17:31:01.552Z,58.76
2023-10-23T17:33:34.506Z,58.76
2023-10-23T17:36:04.159Z,58.77
2023-10-23T17:38:32.752Z,59.22
2023-10-23T17:41:01.211Z,59.61
2023-10-23T17:43:30.111Z,59.41
2023-10-23T17:46:02.977Z,59.73
2023-10-23T17:48:32.594Z,59.64
2023-10-23T17:51:09.889Z,59.97
2023-10-23T17:53:44.340Z,60.23
2023-10-23T17:56:22.308Z,60.37
2023-10-23T17:58:55.904Z,61.12
2023-10-23T18:01:24.834Z,61.00
2023-10-23T18:03:53.483Z,60.96
2023-10-23T18:06:21.977Z,61.05
2023-10-23T18:08:50.517Z,61.53
2023-10-23T18:11:19.150Z,61.51
2023-10-23T18:13:47.925Z,61.69
2023-10-23T18:16:16.466Z,62.21
2023-10-23T18:18:45.143Z,62.51
2023-10-23T18:21:13.793Z,62.35
2023-10-23T18:23:42.263Z,62.72
2023-10-23T18:26:11.099Z,62.65
2023-10-23T18:28:39.647Z,62.69
2023-10-23T18:31:08.546Z,63.59
2023-10-23T18:33:37.420Z,63.80
2023-10-23T18:36:07.034Z,63.69
2023-10-23T18:38:35.515Z,63.91
2023-10-23T18:41:04.044Z,63.95
2023-10-23T18:43:32.845Z,63.55
2023-10-23T18:46:01.648Z,63.41
2023-10-23T18:48:30.284Z,63.38
2023-10-23T18:51:00.785Z,63.28
2023-10-23T18:53:30.089Z,63.52
2023-10-23T18:55:58.569Z,63.21
2023-10-23T18:58:27.289Z,63.18
2023-10-23T19:00:56.101Z,62.94
2023-10-23T19:03:25.006Z,63.17
2023-10-23T19:05:57.635Z,62.99
2023-10-23T19:08:29.164Z,63.13
2023-10-23T19:10:57.658Z,63.16
2023-10-23T19:13:27.006Z,63.46
2023-10-23T19:15:59.957Z,63.41
2023-10-23T19:18:31.040Z,63.32
2023-10-23T19:21:12.776Z,63.37
2023-10-23T19:23:44.845Z,63.89
2023-10-23T19:26:16.395Z,65.08
2023-10-23T19:28:46.155Z,65.49
2023-10-23T19:31:20.496Z,65.57
2023-10-23T19:33:49.747Z,65.82
2023-10-23T19:36:20.750Z,66.62
2023-10-23T19:38:49.689Z,66.88
2023-10-23T19:41:32.292Z,66.82
2023-10-23T19:44:00.969Z,66.90
2023-10-23T19:46:30.160Z,67.79
2023-10-23T19:49:01.058Z,67.69
2023-10-23T19:51:31.617Z,67.60
2023-10-23T19:54:01.219Z,67.51
2023-10-23T19:56:33.002Z,67.73
2023-10-23T19:59:02.127Z,67.39
2023-10-23T20:01:31.007Z,67.47
2023-10-23T20:03:59.697Z,67.66
2023-10-23T20:06:28.598Z,67.99
2023-10-23T20:08:57.110Z,68.43
2023-10-23T20:11:25.687Z,68.38
2023-10-23T20:13:54.256Z,68.38
2023-10-23T20:16:22.785Z,68.21
2023-10-23T20:18:51.323Z,68.48
2023-10-23T20:21:20.118Z,68.84
2023-10-23T20:23:48.804Z,68.86
2023-10-23T20:26:17.911Z,68.92
2023-10-23T20:28:47.711Z,69.14
2023-10-23T20:31:21.658Z,69.31
2023-10-23T20:33:53.180Z,69.20
2023-10-23T20:36:22.842Z,69.58
2023-10-23T20:38:51.375Z,69.52
2023-10-23T20:41:20.567Z,69.51
2023-10-23T20:43:50.256Z,69.62
2023-10-23T20:46:19.293Z,69.54
2023-10-23T20:48:47.951Z,69.70
2023-10-23T20:51:17.139Z,70.05
2023-10-23T20:53:45.631Z,69.99
2023-10-23T20:56:14.308Z,69.99
2023-10-23T20:58:43.548Z,69.93
2023-10-23T21:01:12.205Z,70.16
2023-10-23T21:03:40.797Z,70.18
2023-10-23T21:06:09.557Z,70.55
2023-10-23T21:08:40.252Z,70.40
2023-10-23T21:11:09.069Z,70.93
2023-10-23T21:13:38.106Z,71.24
2023-10-23T21:16:08.773Z,71.81
2023-10-23T21:18:37.392Z,71.85
2023-10-23T21:21:06.280Z,72.56
2023-10-23T21:23:34.975Z,72.45
2023-10-23T21:26:08.075Z,72.83
2023-10-23T21:28:42.925Z,72.78
2023-10-23T21:31:12.375Z,72.87
2023-10-23T21:33:41.005Z,72.92
2023-10-23T21:36:10.193Z,72.34
2023-10-23T21:38:38.805Z,72.42
2023-10-23T21:41:07.476Z,72.05
2023-10-23T21:43:37.213Z,71.63
2023-10-23T21:46:16.843Z,71.68
2023-10-23T21:48:46.178Z,71.48
2023-10-23T21:51:14.608Z,71.46
2023-10-23T21:53:43.400Z,71.49
2023-10-23T21:56:19.976Z,71.82
2023-10-23T21:59:11.638Z,71.78
2023-10-23T22:01:44.157Z,72.19
2023-10-23T22:04:13.409Z,72.30
2023-10-23T22:06:43.856Z,72.68
2023-10-23T22:09:14.811Z,72.46
2023-10-23T22:11:44.732Z,72.54
2023-10-23T22:14:13.704Z,72.63
2023-10-23T22:16:42.287Z,72.53
2023-10-23T22:19:11.056Z,72.54
2023-10-23T22:21:39.593Z,72.42
2023-10-23T22:24:08.132Z,72.59
2023-10-23T22:26:36.966Z,73.04
2023-10-23T22:29:05.474Z,73.16
2023-10-23T22:31:33.997Z,72.89
2023-10-23T22:34:02.714Z,73.03
2023-10-23T22:36:31.209Z,72.70
2023-10-23T22:38:59.592Z,72.89
2023-10-23T22:41:28.180Z,72.97
2023-10-23T22:43:56.659Z,72.81
2023-10-23T22:46:28.273Z,72.61
2023-10-23T22:48:56.800Z,72.46
2023-10-23T22:51:25.692Z,72.35
2023-10-23T22:53:54.580Z,72.08
2023-10-23T22:56:23.292Z,72.12
2023-10-23T22:58:52.034Z,71.89
2023-10-23T23:01:22.207Z,71.62
2023-10-23T23:03:50.919Z,71.11
2023-10-23T23:06:20.684Z,71.01
2023-10-23T23:08:52.956Z,70.86
2023-10-23T23:11:21.846Z,70.70
2023-10-23T23:13:53.476Z,70.75
2023-10-23T23:16:22.255Z,70.76
2023-10-23T23:18:52.935Z,70.82
2023-10-23T23:21:23.520Z,70.76
2023-10-23T23:23:51.937Z,70.48
2023-10-23T23:26:21.853Z,70.65
2023-10-23T23:28:50.230Z,70.76
2023-10-23T23:31:18.700Z,70.82
2023-10-23T23:33:47.301Z,70.72
2023-10-23T23:36:15.991Z,70.82
2023-10-23T23:38:44.366Z,70.62
2023-10-23T23:41:12.842Z,70.71
2023-10-23T23:43:41.368Z,70.87
2023-10-23T23:46:10.249Z,70.72
2023-10-23T23:48:38.796Z,70.82
2023-10-23T23:51:07.284Z,70.92
2023-10-23T23:53:35.804Z,70.89
2023-10-23T23:56:04.852Z,71.16
2023-10-23T23:58:33.266Z,71.22
